Time,TemperatureF,DewpointF,PressureIn,WindDirection,WindDirectionDegrees,WindSpeedMPH,WindSpeedGustMPH,Humidity,HourlyPrecipIn,Conditions,Clouds,dailyrainin,SoftwareType,DateUTC
2013-02-04 00:03:00,66.0,53.0,30.06,NNE,15,6.0,-999.0,64,-99.99,,,-99.99,,2013-02-04 05:03:00,
2013-02-04 00:11:00,66.0,53.0,30.06,NNE,15,6.0,-999.0,64,-99.99,,,-99.99,,2013-02-04 05:11:00,
2013-02-04 00:22:00,66.0,53.0,30.05,North,349,6.0,-999.0,64,-99.99,,,-99.99,,2013-02-04 05:22:00,
2013-02-04 00:33:00,66.0,52.0,30.05,NNE,27,7.0,-999.0,61,-99.99,,,-99.99,,2013-02-04 05:33:00,
2013-02-04 00:42:00,66.0,52.0,30.05,NNE,27,7.0,-999.0,61,-99.99,,,-99.99,,2013-02-04 05:42:00,
2013-02-04 00:52:00,66.0,53.0,30.04,North,5,6.0,-999.0,64,-99.99,,,-99.99,,2013-02-04 05:52:00,
2013-02-04 01:02:00,66.0,53.0,30.04,NE,42,7.0,-999.0,63,-99.99,,,-99.99,,2013-02-04 06:02:00,
2013-02-04 01:11:00,66.0,53.0,30.04,NE,42,7.0,-999.0,63,-99.99,,,-99.99,,2013-02-04 06:11:00,
2013-02-04 01:21:00,66.0,52.0,30.04,North,9,7.0,-999.0,61,-99.99,,,-99.99,,2013-02-04 06:21:00,
2013-02-04 01:32:00,66.0,53.0,30.04,NNE,32,5.0,-999.0,64,-99.99,,,-99.99,,2013-02-04 06:32:00,
2013-02-04 01:42:00,66.0,53.0,30.04,NNE,32,5.0,-999.0,64,-99.99,,,-99.99,,2013-02-04 06:42:00,
2013-02-04 01:52:00,66.0,54.0,30.04,NE,47,5.0,-999.0,65,-99.99,,,-99.99,,2013-02-04 06:52:00,
2013-02-04 02:02:00,66.0,53.0,30.03,North,5,2.0,-999.0,63,-99.99,,,-99.99,,2013-02-04 07:02:00,
2013-02-04 02:11:00,66.0,53.0,30.03,North,355,5.0,-999.0,63,-99.99,,,-99.99,,2013-02-04 07:11:00,
2013-02-04 02:21:00,66.0,53.0,30.03,North,355,5.0,-999.0,63,-99.99,,,-99.99,,2013-02-04 07:21:00,
2013-02-04 02:32:00,66.0,53.0,30.03,NNE,26,5.0,-999.0,64,-99.99,,,-99.99,,2013-02-04 07:32:00,
2013-02-04 02:42:00,66.0,53.0,30.03,NNE,26,5.0,-999.0,64,-99.99,,,-99.99,,2013-02-04 07:42:00,
2013-02-04 02:52:00,66.0,53.0,30.03,NNE,26,6.0,-999.0,63,-99.99,,,-99.99,,2013-02-04 07:52:00,
2013-02-04 03:01:00,66.0,53.0,30.02,North,10,6.0,-999.0,64,-99.99,,,-99.99,,2013-02-04 08:01:00,
2013-02-04 03:11:00,66.0,53.0,30.02,North,10,6.0,-999.0,64,-99.99,,,-99.99,,2013-02-04 08:11:00,
2013-02-04 03:21:00,66.0,53.0,30.02,ENE,59,6.0,-999.0,64,-99.99,,,-99.99,,2013-02-04 08:21:00,
2013-02-04 03:32:00,66.0,51.0,30.03,North,5,8.0,-999.0,59,-99.99,,,-99.99,,2013-02-04 08:32:00,
2013-02-04 03:42:00,66.0,51.0,30.03,North,5,8.0,-999.0,59,-99.99,,,-99.99,,2013-02-04 08:42:00,
2013-02-04 03:52:00,66.0,53.0,30.02,North,5,7.0,-999.0,62,-99.99,,,-99.99,,2013-02-04 08:52:00,
2013-02-04 04:02:00,66.0,53.0,30.02,NNW,339,8.0,-999.0,63,-99.99,,,-99.99,,2013-02-04 09:02:00,
2013-02-04 04:11:00,66.0,53.0,30.02,NNW,339,8.0,-999.0,63,-99.99,,,-99.99,,2013-02-04 09:11:00,
2013-02-04 04:21:00,64.0,53.0,30.03,North,351,10.0,-999.0,67,-99.99,,,-99.99,,2013-02-04 09:21:00,
2013-02-04 04:32:00,63.0,52.0,30.03,North,355,11.0,-999.0,68,-99.99,,,-99.99,,2013-02-04 09:32:00,
2013-02-04 04:42:00,63.0,52.0,30.03,North,355,11.0,-999.0,68,-99.99,,,-99.99,,2013-02-04 09:42:00,
2013-02-04 04:52:00,63.0,51.0,30.03,NNE,27,14.0,-999.0,66,-99.99,,,-99.99,,2013-02-04 09:52:00,
2013-02-04 05:01:00,63.0,53.0,30.03,North,355,12.0,-999.0,69,-99.99,,,-99.99,,2013-02-04 10:01:00,
2013-02-04 05:11:00,63.0,53.0,30.03,North,355,12.0,-999.0,69,-99.99,,,-99.99,,2013-02-04 10:11:00,
2013-02-04 05:21:00,63.0,52.0,30.03,North,355,13.0,-999.0,68,-99.99,,,-99.99,,2013-02-04 10:21:00,
2013-02-04 05:32:00,63.0,53.0,30.03,NNW,346,11.0,-999.0,70,-99.99,,,-99.99,,2013-02-04 10:32:00,
2013-02-04 05:42:00,63.0,53.0,30.03,NNW,346,11.0,-999.0,70,-99.99,,,-99.99,,2013-02-04 10:42:00,
2013-02-04 05:52:00,63.0,54.0,30.04,NNE,22,10.0,-999.0,72,-99.99,,,-99.99,,2013-02-04 10:52:00,
2013-02-04 06:02:00,63.0,53.0,30.04,NNE,16,11.0,-999.0,71,-99.99,,,-99.99,,2013-02-04 11:02:00,
2013-02-04 06:11:00,63.0,53.0,30.04,NNE,16,11.0,-999.0,71,-99.99,,,-99.99,,2013-02-04 11:11:00,
2013-02-04 06:22:00,62.0,52.0,30.05,ENE,57,10.0,-999.0,70,-99.99,,,-99.99,,2013-02-04 11:22:00,
2013-02-04 06:32:00,62.0,52.0,30.05,NNW,338,10.0,-999.0,70,-99.99,,,-99.99,,2013-02-04 11:32:00,
2013-02-04 06:42:00,62.0,52.0,30.05,NNW,338,10.0,-999.0,70,-99.99,,,-99.99,,2013-02-04 11:42:00,
2013-02-04 06:52:00,62.0,53.0,30.06,NNW,346,9.0,-999.0,73,-99.99,,,-99.99,,2013-02-04 11:52:00,
2013-02-04 07:02:00,62.0,53.0,30.06,North,5,8.0,-999.0,73,-99.99,,,-99.99,,2013-02-04 12:02:00,
2013-02-04 07:12:00,62.0,53.0,30.06,North,5,8.0,-999.0,73,-99.99,,,-99.99,,2013-02-04 12:12:00,
2013-02-04 07:22:00,62.0,53.0,30.06,North,360,7.0,-999.0,73,-99.99,,,-99.99,,2013-02-04 12:22:00,
2013-02-04 07:32:00,62.0,53.0,30.07,NE,37,9.0,-999.0,73,-99.99,,,-99.99,,2013-02-04 12:32:00,
2013-02-04 07:42:00,62.0,53.0,30.07,NE,37,9.0,-999.0,73,-99.99,,,-99.99,,2013-02-04 12:42:00,
2013-02-04 07:53:00,62.0,53.0,30.07,NE,37,10.0,-999.0,73,-99.99,,,-99.99,,2013-02-04 12:53:00,
2013-02-04 08:03:00,62.0,54.0,30.07,North,5,9.0,-999.0,76,-99.99,,,-99.99,,2013-02-04 13:03:00,
2013-02-04 08:12:00,61.0,51.0,30.08,NW,309,11.0,-999.0,70,-99.99,,,-99.99,,2013-02-04 13:12:00,
2013-02-04 08:22:00,61.0,51.0,30.08,NW,309,11.0,-999.0,70,-99.99,,,-99.99,,2013-02-04 13:22:00,
2013-02-04 08:33:00,62.0,52.0,30.08,NNE,32,9.0,-999.0,70,-99.99,,,-99.99,,2013-02-04 13:33:00,
2013-02-04 08:42:00,62.0,52.0,30.08,NNE,32,9.0,-999.0,70,-99.99,,,-99.99,,2013-02-04 13:42:00,
2013-02-04 08:52:00,62.0,51.0,30.08,NE,42,9.0,-999.0,68,-99.99,,,-99.99,,2013-02-04 13:52:00,
2013-02-04 09:03:00,62.0,51.0,30.09,North,360,10.0,-999.0,68,-99.99,,,-99.99,,2013-02-04 14:03:00,
2013-02-04 09:12:00,62.0,51.0,30.09,North,360,10.0,-999.0,68,-99.99,,,-99.99,,2013-02-04 14:12:00,
2013-02-04 09:22:00,63.0,52.0,30.08,NNW,340,9.0,-999.0,67,-99.99,,,-99.99,,2013-02-04 14:22:00,
2013-02-04 09:33:00,63.0,52.0,30.09,North,360,8.0,-999.0,68,-99.99,,,-99.99,,2013-02-04 14:33:00,
2013-02-04 09:42:00,63.0,52.0,30.09,North,360,8.0,-999.0,68,-99.99,,,-99.99,,2013-02-04 14:42:00,
2013-02-04 09:52:00,63.0,51.0,30.09,NNW,331,7.0,-999.0,66,-99.99,,,-99.99,,2013-02-04 14:52:00,
2013-02-04 10:03:00,64.0,53.0,30.09,NNE,31,7.0,-999.0,67,-99.99,,,-99.99,,2013-02-04 15:03:00,
2013-02-04 10:12:00,64.0,53.0,30.09,NNE,31,7.0,-999.0,67,-99.99,,,-99.99,,2013-02-04 15:12:00,
2013-02-04 10:23:00,64.0,53.0,30.09,NNE,15,7.0,-999.0,67,-99.99,,,-99.99,,2013-02-04 15:23:00,
2013-02-04 10:33:00,64.0,52.0,30.09,NNE,13,7.0,-999.0,65,-99.99,,,-99.99,,2013-02-04 15:33:00,
2013-02-04 10:43:00,64.0,52.0,30.09,NNE,13,7.0,-999.0,65,-99.99,,,-99.99,,2013-02-04 15:43:00,
2013-02-04 10:53:00,65.0,53.0,30.09,NNE,30,6.0,-999.0,65,-99.99,,,-99.99,,2013-02-04 15:53:00,
2013-02-04 11:03:00,65.0,53.0,30.08,NE,43,5.0,-999.0,64,-99.99,,,-99.99,,2013-02-04 16:03:00,
2013-02-04 11:11:00,65.0,53.0,30.08,NE,43,5.0,-999.0,64,-99.99,,,-99.99,,2013-02-04 16:11:00,
2013-02-04 11:22:00,67.0,53.0,30.08,North,5,5.0,-999.0,61,-99.99,,,-99.99,,2013-02-04 16:22:00,
2013-02-04 11:33:00,67.0,53.0,30.07,NNW,344,5.0,-999.0,61,-99.99,,,-99.99,,2013-02-04 16:33:00,
2013-02-04 11:43:00,67.0,53.0,30.07,NNW,344,5.0,-999.0,61,-99.99,,,-99.99,,2013-02-04 16:43:00,
2013-02-04 11:52:00,67.0,52.0,30.06,North,360,5.0,-999.0,59,-99.99,,,-99.99,,2013-02-04 16:52:00,
2013-02-04 12:02:00,67.0,52.0,30.06,North,355,6.0,-999.0,58,-99.99,,,-99.99,,2013-02-04 17:02:00,
2013-02-04 12:11:00,67.0,52.0,30.06,North,355,6.0,-999.0,58,-99.99,,,-99.99,,2013-02-04 17:11:00,
2013-02-04 12:21:00,68.0,53.0,30.06,North,5,5.0,-999.0,58,-99.99,,,-99.99,,2013-02-04 17:21:00,
2013-02-04 12:32:00,69.0,53.0,30.05,NNE,24,5.0,-999.0,56,-99.99,,,-99.99,,2013-02-04 17:32:00,
2013-02-04 12:42:00,69.0,53.0,30.05,NNE,24,5.0,-999.0,56,-99.99,,,-99.99,,2013-02-04 17:42:00,
2013-02-04 12:52:00,69.0,52.0,30.04,NNW,341,6.0,-999.0,55,-99.99,,,-99.99,,2013-02-04 17:52:00,
2013-02-04 13:03:00,70.0,53.0,30.04,NNW,340,4.0,-999.0,54,-99.99,,,-99.99,,2013-02-04 18:03:00,
2013-02-04 13:11:00,70.0,53.0,30.04,NNW,340,4.0,-999.0,54,-99.99,,,-99.99,,2013-02-04 18:11:00,
2013-02-04 13:22:00,70.0,53.0,30.02,North,5,4.0,-999.0,54,-99.99,,,-99.99,,2013-02-04 18:22:00,
2013-02-04 13:32:00,70.0,52.0,30.02,NNW,346,6.0,-999.0,52,-99.99,,,-99.99,,2013-02-04 18:32:00,
2013-02-04 13:42:00,70.0,52.0,30.02,NNW,346,6.0,-999.0,52,-99.99,,,-99.99,,2013-02-04 18:42:00,
2013-02-04 13:52:00,72.0,55.0,30.02,North,360,2.0,-999.0,56,-99.99,,,-99.99,,2013-02-04 18:52:00,
2013-02-04 14:02:00,72.0,55.0,30.01,North,360,1.0,-999.0,56,-99.99,,,-99.99,,2013-02-04 19:02:00,
2013-02-04 14:11:00,72.0,55.0,30.01,North,360,1.0,-999.0,56,-99.99,,,-99.99,,2013-02-04 19:11:00,
2013-02-04 14:22:00,72.0,58.0,30.01,ENE,59,3.0,-999.0,61,-99.99,,,-99.99,,2013-02-04 19:22:00,
2013-02-04 14:32:00,72.0,58.0,30.00,NE,42,4.0,-999.0,62,-99.99,,,-99.99,,2013-02-04 19:32:00,
2013-02-04 14:42:00,72.0,58.0,30.00,NE,42,4.0,-999.0,62,-99.99,,,-99.99,,2013-02-04 19:42:00,
2013-02-04 14:52:00,71.0,58.0,30.00,ENE,59,5.0,-999.0,63,-99.99,,,-99.99,,2013-02-04 19:52:00,
2013-02-04 15:02:00,72.0,58.0,30.00,East,79,3.0,-999.0,62,-99.99,,,-99.99,,2013-02-04 20:02:00,
2013-02-04 15:12:00,72.0,58.0,30.00,East,79,3.0,-999.0,62,-99.99,,,-99.99,,2013-02-04 20:12:00,
2013-02-04 15:22:00,73.0,58.0,29.99,SE,124,6.0,-999.0,59,-99.99,,,-99.99,,2013-02-04 20:22:00,
2013-02-04 15:32:00,73.0,57.0,29.99,ESE,121,7.0,-999.0,58,-99.99,,,-99.99,,2013-02-04 20:32:00,
2013-02-04 15:42:00,73.0,57.0,29.99,ESE,121,7.0,-999.0,58,-99.99,,,-99.99,,2013-02-04 20:42:00,
2013-02-04 15:52:00,73.0,57.0,29.98,East,96,6.0,-999.0,58,-99.99,,,-99.99,,2013-02-04 20:52:00,
2013-02-04 16:02:00,73.0,58.0,29.98,ESE,123,6.0,-999.0,59,-99.99,,,-99.99,,2013-02-04 21:02:00,
2013-02-04 16:11:00,73.0,58.0,29.98,ESE,123,6.0,-999.0,59,-99.99,,,-99.99,,2013-02-04 21:11:00,
2013-02-04 16:22:00,72.0,57.0,29.99,ESE,122,6.0,-999.0,60,-99.99,,,-99.99,,2013-02-04 21:22:00,
2013-02-04 16:32:00,72.0,57.0,29.99,SE,140,5.0,-999.0,60,-99.99,,,-99.99,,2013-02-04 21:32:00,
2013-02-04 16:42:00,72.0,57.0,29.99,SE,140,5.0,-999.0,60,-99.99,,,-99.99,,2013-02-04 21:42:00,
2013-02-04 16:52:00,72.0,57.0,29.98,SE,134,3.0,-999.0,60,-99.99,,,-99.99,,2013-02-04 21:52:00,
2013-02-04 17:03:00,71.0,56.0,29.99,South,175,5.0,-999.0,59,-99.99,,,-99.99,,2013-02-04 22:03:00,
2013-02-04 17:12:00,71.0,56.0,29.99,South,175,5.0,-999.0,59,-99.99,,,-99.99,,2013-02-04 22:12:00,
2013-02-04 17:21:00,72.0,57.0,29.99,SE,129,3.0,-999.0,59,-99.99,,,-99.99,,2013-02-04 22:21:00,
2013-02-04 17:32:00,72.0,56.0,29.99,SE,132,2.0,-999.0,58,-99.99,,,-99.99,,2013-02-04 22:32:00,
2013-02-04 17:42:00,72.0,56.0,29.99,SE,132,2.0,-999.0,58,-99.99,,,-99.99,,2013-02-04 22:42:00,
2013-02-04 17:52:00,71.0,56.0,29.99,ESE,123,7.0,-999.0,59,-99.99,,,-99.99,,2013-02-04 22:52:00,
2013-02-04 18:01:00,71.0,57.0,29.99,East,92,6.0,-999.0,61,-99.99,,,-99.99,,2013-02-04 23:01:00,
2013-02-04 18:11:00,71.0,57.0,29.99,East,92,6.0,-999.0,61,-99.99,,,-99.99,,2013-02-04 23:11:00,
2013-02-04 18:21:00,70.0,55.0,29.99,SSE,158,2.0,-999.0,60,-99.99,,,-99.99,,2013-02-04 23:21:00,
2013-02-04 18:32:00,70.0,56.0,30.00,SE,132,3.0,-999.0,61,-99.99,,,-99.99,,2013-02-04 23:32:00,
2013-02-04 18:42:00,70.0,56.0,30.00,SE,132,3.0,-999.0,61,-99.99,,,-99.99,,2013-02-04 23:42:00,
2013-02-04 18:52:00,70.0,56.0,30.00,East,89,5.0,-999.0,61,-99.99,,,-99.99,,2013-02-04 23:52:00,
2013-02-04 19:02:00,70.0,56.0,30.00,ESE,107,3.0,-999.0,61,-99.99,,,-99.99,,2013-02-05 00:02:00,
2013-02-04 19:11:00,70.0,56.0,30.00,ESE,107,3.0,-999.0,61,-99.99,,,-99.99,,2013-02-05 00:11:00,
2013-02-04 19:22:00,70.0,56.0,30.00,ESE,109,2.0,-999.0,62,-99.99,,,-99.99,,2013-02-05 00:22:00,
2013-02-04 19:32:00,70.0,56.0,30.00,East,88,2.0,-999.0,62,-99.99,,,-99.99,,2013-02-05 00:32:00,
2013-02-04 19:42:00,70.0,56.0,30.00,East,88,2.0,-999.0,62,-99.99,,,-99.99,,2013-02-05 00:42:00,
2013-02-04 19:52:00,70.0,57.0,30.01,ESE,103,4.0,-999.0,63,-99.99,,,-99.99,,2013-02-05 00:52:00,
2013-02-04 20:02:00,70.0,56.0,30.01,East,96,3.0,-999.0,62,-99.99,,,-99.99,,2013-02-05 01:02:00,
2013-02-04 20:12:00,70.0,56.0,30.01,East,96,3.0,-999.0,62,-99.99,,,-99.99,,2013-02-05 01:12:00,
2013-02-04 20:22:00,70.0,57.0,30.01,ESE,103,1.0,-999.0,63,-99.99,,,-99.99,,2013-02-05 01:22:00,
2013-02-04 20:32:00,70.0,57.0,30.02,East,101,0.0,-999.0,63,-99.99,,,-99.99,,2013-02-05 01:32:00,
2013-02-04 20:42:00,70.0,57.0,30.02,East,101,0.0,-999.0,63,-99.99,,,-99.99,,2013-02-05 01:42:00,
2013-02-04 20:52:00,70.0,56.0,30.03,ESE,121,1.0,-999.0,62,-99.99,,,-99.99,,2013-02-05 01:52:00,
2013-02-04 21:01:00,70.0,56.0,30.03,ESE,120,0.0,-999.0,62,-99.99,,,-99.99,,2013-02-05 02:01:00,
2013-02-04 21:11:00,70.0,56.0,30.03,ESE,120,0.0,-999.0,62,-99.99,,,-99.99,,2013-02-05 02:11:00,
2013-02-04 21:22:00,70.0,57.0,30.03,ESE,111,0.0,-999.0,64,-99.99,,,-99.99,,2013-02-05 02:22:00,
2013-02-04 21:32:00,70.0,57.0,30.03,East,101,0.0,-999.0,63,-99.99,,,-99.99,,2013-02-05 02:32:00,
2013-02-04 21:42:00,70.0,57.0,30.03,East,101,0.0,-999.0,63,-99.99,,,-99.99,,2013-02-05 02:42:00,
2013-02-04 21:52:00,70.0,58.0,30.03,ESE,109,0.0,-999.0,65,-99.99,,,-99.99,,2013-02-05 02:52:00,
2013-02-04 22:02:00,70.0,57.0,30.03,ESE,104,0.0,-999.0,64,-99.99,,,-99.99,,2013-02-05 03:02:00,
2013-02-04 22:11:00,70.0,57.0,30.03,ESE,104,0.0,-999.0,64,-99.99,,,-99.99,,2013-02-05 03:11:00,
2013-02-04 22:21:00,69.0,57.0,30.03,East,100,1.0,-999.0,65,-99.99,,,-99.99,,2013-02-05 03:21:00,
2013-02-04 22:32:00,70.0,58.0,30.03,ENE,68,0.0,-999.0,66,-99.99,,,-99.99,,2013-02-05 03:32:00,
2013-02-04 22:42:00,70.0,58.0,30.03,ENE,68,0.0,-999.0,66,-99.99,,,-99.99,,2013-02-05 03:42:00,
2013-02-04 22:52:00,69.0,57.0,30.03,ENE,66,0.0,-999.0,66,-99.99,,,-99.99,,2013-02-05 03:52:00,
2013-02-04 23:01:00,69.0,58.0,30.03,ENE,68,0.0,-999.0,67,-99.99,,,-99.99,,2013-02-05 04:01:00,
2013-02-04 23:11:00,69.0,58.0,30.03,ENE,68,0.0,-999.0,67,-99.99,,,-99.99,,2013-02-05 04:11:00,
2013-02-04 23:22:00,69.0,57.0,30.03,ENE,69,0.0,-999.0,66,-99.99,,,-99.99,,2013-02-05 04:22:00,
2013-02-04 23:32:00,69.0,58.0,30.03,ENE,69,0.0,-999.0,67,-99.99,,,-99.99,,2013-02-05 04:32:00,
2013-02-04 23:42:00,69.0,58.0,30.03,ENE,69,0.0,-999.0,67,-99.99,,,-99.99,,2013-02-05 04:42:00,
2013-02-04 23:52:00,69.0,57.0,30.03,ENE,74,0.0,-999.0,66,-99.99,,,-99.99,,2013-02-05 04:52:00,